Flinterduin — PEBT — position and weather

sailwx.info

Track history (hours):
 
Tides and Currents Weather Stations Pressure Air Temp Water Temp Dewpoint Dewpoint Depression Visibility Wind Speed Wind Dir Waves Ship Positions

Flinterduin

Last reported at 2016-Jun-29 04:31 UTC. Time now 2016-Jun-29 05:45 UTC.
Position N 52°12' E 004°12'.

Length 112 m; beam 15 m.

Type: Cargo ship. MMSI: 246484000.

Date/timePositionNaut miles runAvg speedWind from/ knotsBaromVisibWave heightAir tempDewpointWater temp
2016-Jun-29 04:31N 52°12' E 004°12'0 0.0
2016-Jun-29 03:31N 52°12' E 004°12'0 0.0
2016-Jun-29 02:31N 52°12' E 004°12'0 0.0
2016-Jun-29 01:31N 52°12' E 004°12'0 0.0
2016-Jun-29 00:28N 52°12' E 004°12'0 0.0
2016-Jun-28 23:31N 52°12' E 004°12'0 0.0
2016-Jun-28 22:34N 52°12' E 004°12'0 0.0
2016-Jun-28 21:33N 52°12' E 004°12'0 0.0
2016-Jun-28 20:33N 52°12' E 004°12'0 0.1
2016-Jun-28 19:33N 52°12' E 004°12'0 0.1
2016-Jun-28 18:33N 52°12' E 004°12'3 3.2
2016-Jun-28 17:33N 52°10' E 004°07'10 9.6
2016-Jun-28 16:34N 52°06' E 003°53'5 5.2
2016-Jun-28 15:32N 52°08' E 003°44'0 0.0
2016-Jun-28 14:29N 52°08' E 003°44'0 0.0
2016-Jun-28 13:29N 52°08' E 003°44'0 0.1
2016-Jun-28 12:32N 52°08' E 003°44'0 0.1
2016-Jun-28 11:29N 52°08' E 003°44'0 0.0
2016-Jun-28 10:26N 52°08' E 003°44'0 0.0
2016-Jun-28 09:32N 52°08' E 003°44'0 0.0
2016-Jun-28 08:32N 52°08' E 003°44'0 0.0
2016-Jun-28 07:29N 52°08' E 003°44'0 0.0
2016-Jun-28 06:29N 52°08' E 003°44'2 4.6
2016-Jun-28 06:00N 52°06' E 003°42'2 1.4 160 / 31018.0 5.4 17.012.8
2016-Jun-28 04:29N 52°08' E 003°44'0 0.0
2016-Jun-28 03:32N 52°08' E 003°44'0 0.0
2016-Jun-28 02:32N 52°08' E 003°44'0 0.0
2016-Jun-28 01:32N 52°08' E 003°44'0 0.0
2016-Jun-28 00:32N 52°08' E 003°44'0 0.1
2016-Jun-27 23:29N 52°08' E 003°44'0 0.1
2016-Jun-27 22:28N 52°08' E 003°44'0 0.0
2016-Jun-27 21:31N 52°08' E 003°44'0 0.0
2016-Jun-27 20:28N 52°08' E 003°44'0 0.0
2016-Jun-27 19:31N 52°08' E 003°44'2 1.5
2016-Jun-27 18:00N 52°06' E 003°42'2 4.3 999 / 11019.0 5.4 18.011.2
2016-Jun-27 17:28N 52°08' E 003°44'0 0.1
2016-Jun-27 16:28N 52°08' E 003°44'0 0.0
2016-Jun-27 14:19N 52°08' E 003°44'0 0.0
2016-Jun-27 13:31N 52°08' E 003°44'0 0.0
2016-Jun-27 12:19N 52°08' E 003°44'0 0.1
2016-Jun-27 11:28N 52°08' E 003°44'0 0.1
2016-Jun-27 10:31N 52°08' E 003°44'0 0.1
2016-Jun-27 09:19N 52°08' E 003°44'0 0.0
2016-Jun-27 08:31N 52°08' E 003°44'0 0.0
2016-Jun-27 07:22N 52°08' E 003°44'0 0.0
2016-Jun-27 06:31N 52°08' E 003°44'0 0.0
2016-Jun-27 05:25N 52°08' E 003°44'0 0.0
2016-Jun-27 04:31N 52°08' E 003°44'0 0.0
2016-Jun-27 03:31N 52°08' E 003°44'0 0.1
2016-Jun-27 02:19N 52°08' E 003°44'0 0.1
2016-Jun-27 01:16N 52°08' E 003°44'0 0.1
2016-Jun-26 23:28N 52°08' E 003°44'0 0.0
2016-Jun-26 22:31N 52°08' E 003°44'0 0.0
2016-Jun-26 21:31N 52°08' E 003°44'0 0.0
2016-Jun-26 20:28N 52°08' E 003°44'0 0.0
2016-Jun-26 19:31N 52°08' E 003°44'0 0.0
2016-Jun-26 18:31N 52°08' E 003°44'2 4.3
2016-Jun-26 18:00N 52°06' E 003°42'2 4.7 230 / 61016.5 5.4 0.516.513.2
2016-Jun-26 17:31N 52°08' E 003°44'0 0.0
2016-Jun-26 16:28N 52°08' E 003°44'0 0.1
2016-Jun-26 15:31N 52°08' E 003°44'0 0.1
2016-Jun-26 14:13N 52°08' E 003°44'0 0.0
2016-Jun-26 12:25N 52°08' E 003°44'0 0.0
2016-Jun-26 11:24N 52°08' E 003°44'0 0.1
2016-Jun-26 10:27N 52°08' E 003°44'0 0.0
2016-Jun-26 09:27N 52°08' E 003°44'0 0.0
2016-Jun-26 08:24N 52°08' E 003°44'0 0.0
2016-Jun-26 07:27N 52°08' E 003°44'0 0.0
2016-Jun-26 06:33N 52°08' E 003°44'2 4.0
2016-Jun-26 06:00N 52°06' E 003°42'2 5.2 270 / 51015.5 5.4 0.516.512.3
2016-Jun-26 05:33N 52°08' E 003°44'0 0.0
2016-Jun-26 04:27N 52°08' E 003°44'0 0.0
2016-Jun-26 03:33N 52°08' E 003°44'0 0.1
2016-Jun-26 02:27N 52°08' E 003°44'0 0.1
2016-Jun-26 01:33N 52°08' E 003°44'0 0.0
2016-Jun-26 00:33N 52°08' E 003°44'0 0.0
2016-Jun-25 23:30N 52°08' E 003°44'0 0.1
2016-Jun-25 22:18N 52°08' E 003°44'0 0.1
2016-Jun-25 21:27N 52°08' E 003°44'0 0.0
2016-Jun-25 20:33N 52°08' E 003°44'0 0.0
2016-Jun-25 19:33N 52°08' E 003°44'0 0.0
2016-Jun-25 18:27N 52°08' E 003°44'2 4.9
2016-Jun-25 18:00N 52°06' E 003°42'2 5.1 280 / 71015.5 5.4 0.516.513.2
2016-Jun-25 17:33N 52°08' E 003°44'0 0.0
2016-Jun-25 16:33N 52°08' E 003°44'0 0.0
2016-Jun-25 15:30N 52°08' E 003°44'0 0.1
2016-Jun-25 14:15N 52°08' E 003°44'0 0.0
2016-Jun-25 13:30N 52°08' E 003°44'0 0.0
2016-Jun-25 12:09N 52°08' E 003°44'0 0.0
2016-Jun-25 11:21N 52°08' E 003°44'0 0.1
2016-Jun-25 10:30N 52°08' E 003°44'0 0.1
2016-Jun-25 09:33N 52°08' E 003°44'0 0.1
2016-Jun-25 08:33N 52°08' E 003°44'0 0.0
2016-Jun-25 07:30N 52°08' E 003°44'0 0.0
2016-Jun-25 06:33N 52°08' E 003°44'2 4.1
2016-Jun-25 06:00N 52°06' E 003°42'2 4.5 240 / 61016.5 5.4 0.516.514.1
2016-Jun-25 05:30N 52°08' E 003°44'0 0.0
2016-Jun-25 04:33N 52°08' E 003°44'0 0.0
2016-Jun-25 03:33N 52°08' E 003°44'0 0.0
2016-Jun-25 02:33N 52°08' E 003°44'0 0.1
2016-Jun-25 01:30N 52°08' E 003°44'0 0.0
2016-Jun-25 00:33N 52°08' E 003°44'0 0.0
2016-Jun-24 23:23N 52°08' E 003°44'0 0.1
2016-Jun-24 22:14N 52°08' E 003°44'0 0.1
2016-Jun-24 21:32N 52°08' E 003°44'0 0.1
2016-Jun-24 20:32N 52°08' E 003°44'0 0.0
2016-Jun-24 19:26N 52°08' E 003°44'0 0.0
2016-Jun-24 18:32N 52°08' E 003°44'2 4.1
2016-Jun-24 18:00N 52°06' E 003°42'2 5.0 210 / 81018.5 5.4 17.513.4
2016-Jun-24 17:32N 52°08' E 003°44'0 0.0
2016-Jun-24 16:32N 52°08' E 003°44'0 0.0
2016-Jun-24 15:32N 52°08' E 003°44'0 0.0
2016-Jun-24 14:32N 52°08' E 003°44'0 0.1
2016-Jun-24 13:29N 52°08' E 003°44'0 0.0
2016-Jun-24 12:23N 52°08' E 003°44'0 0.0
2016-Jun-24 11:32N 52°08' E 003°44'0 0.0
2016-Jun-24 10:20N 52°08' E 003°44'0 0.1
2016-Jun-24 09:32N 52°08' E 003°44'0 0.1
2016-Jun-24 08:23N 52°08' E 003°44'0 0.0
2016-Jun-24 07:32N 52°08' E 003°44'0 0.0
2016-Jun-24 04:32N 52°08' E 003°44'0 0.0
2016-Jun-24 03:32N 52°08' E 003°44'0 0.0
2016-Jun-24 02:08N 52°08' E 003°44'0 0.1
2016-Jun-24 01:29N 52°08' E 003°44'0 0.1
2016-Jun-24 00:32N 52°08' E 003°44'0 0.0
2016-Jun-23 23:32N 52°08' E 003°44'0 0.0
2016-Jun-23 22:26N 52°08' E 003°44'0 0.0
2016-Jun-23 21:32N 52°08' E 003°44'0 0.0
2016-Jun-23 20:29N 52°08' E 003°44'0 0.1
2016-Jun-23 19:29N 52°08' E 003°44'0 0.0
2016-Jun-23 18:32N 52°08' E 003°44'2 4.2
2016-Jun-23 18:00N 52°06' E 003°42'2 4.8 010 / 31015.5 2.2 0.518.017.2
2016-Jun-23 17:32N 52°08' E 003°44'0 0.0
2016-Jun-23 16:29N 52°08' E 003°44'0 0.0
2016-Jun-23 15:32N 52°08' E 003°44'0 0.0
2016-Jun-23 14:32N 52°08' E 003°44'0 0.1
2016-Jun-23 13:31N 52°08' E 003°44'0 0.0
2016-Jun-23 12:28N 52°08' E 003°44'0 0.0
2016-Jun-23 11:31N 52°08' E 003°44'0 0.0
2016-Jun-23 10:28N 52°08' E 003°44'0 0.0
2016-Jun-23 09:31N 52°08' E 003°44'0 0.0
2016-Jun-23 08:31N 52°08' E 003°44'0 0.0
2016-Jun-23 07:28N 52°08' E 003°44'2 1.4
2016-Jun-23 06:00N 52°06' E 003°42'2 4.8 110 / 51018.5 5.4 20.016.9
2016-Jun-23 05:31N 52°08' E 003°44'0 0.0
2016-Jun-23 04:31N 52°08' E 003°44'0 0.0
2016-Jun-23 03:31N 52°08' E 003°44'0 0.0
2016-Jun-23 02:25N 52°08' E 003°44'0 0.1
2016-Jun-23 01:25N 52°08' E 003°44'0 0.1
2016-Jun-23 00:31N 52°08' E 003°44'0 0.0
2016-Jun-22 23:28N 52°08' E 003°44'0 0.0
2016-Jun-22 22:28N 52°08' E 003°44'0 0.0
2016-Jun-22 21:22N 52°08' E 003°44'0 0.0
2016-Jun-22 20:31N 52°08' E 003°44'0 0.0
2016-Jun-22 19:31N 52°08' E 003°44'0 0.1
2016-Jun-22 18:25N 52°08' E 003°44'2 5.3
2016-Jun-22 18:00N 52°06' E 003°42'2 4.7 1020.5 5.4 20.017.7
2016-Jun-22 17:31N 52°08' E 003°44'0 0.0
2016-Jun-22 16:19N 52°08' E 003°44'0 0.0
2016-Jun-22 15:31N 52°08' E 003°44'0 0.0
2016-Jun-22 14:25N 52°08' E 003°44'0 0.0
2016-Jun-22 13:22N 52°08' E 003°44'0 0.1
2016-Jun-22 12:25N 52°08' E 003°44'0 0.0
2016-Jun-22 11:28N 52°08' E 003°44'0 0.0
2016-Jun-22 10:25N 52°08' E 003°44'0 0.0
2016-Jun-22 09:31N 52°08' E 003°44'0 0.0
2016-Jun-22 08:31N 52°08' E 003°44'0 0.2
2016-Jun-22 07:31N 52°08' E 003°44'0 0.0
2016-Jun-22 06:31N 52°08' E 003°44'2 4.4
2016-Jun-22 06:00N 52°06' E 003°42'2 4.2 220 / 81020.5 5.4 17.013.7
2016-Jun-22 05:28N 52°08' E 003°44'0 0.0
2016-Jun-22 04:31N 52°08' E 003°44'0 0.0
2016-Jun-22 03:34N 52°08' E 003°44'0 0.0
2016-Jun-22 02:34N 52°08' E 003°44'0 0.0
2016-Jun-22 01:27N 52°08' E 003°44'0 0.0
2016-Jun-22 00:30N 52°08' E 003°44'0 0.1
2016-Jun-21 23:33N 52°08' E 003°44'0 0.1
2016-Jun-21 22:33N 52°08' E 003°44'0 0.0
2016-Jun-21 21:18N 52°08' E 003°44'0 0.1
2016-Jun-21 20:27N 52°08' E 003°44'0 0.1
2016-Jun-21 19:33N 52°08' E 003°44'0 0.0
2016-Jun-21 18:33N 52°08' E 003°44'2 4.0
2016-Jun-21 18:00N 52°06' E 003°42'2 5.2 230 / 61018.5 5.4 17.014.6
2016-Jun-21 17:33N 52°08' E 003°44'0 0.0
2016-Jun-21 16:33N 52°08' E 003°44'0 0.0
2016-Jun-21 15:30N 52°08' E 003°44'0 0.0
2016-Jun-21 14:30N 52°08' E 003°44'0 0.0
2016-Jun-21 13:33N 52°08' E 003°44'0 0.0
2016-Jun-21 12:33N 52°08' E 003°44'0 0.1
2016-Jun-21 11:33N 52°08' E 003°44'0 0.0
2016-Jun-21 10:33N 52°08' E 003°44'0 0.0
2016-Jun-21 09:33N 52°08' E 003°44'0 0.0
2016-Jun-21 08:33N 52°08' E 003°44'0 0.1
2016-Jun-21 07:33N 52°08' E 003°44'2 1.4
2016-Jun-21 06:00N 52°06' E 003°42'2 1.5 210 / 91016.5 0.1 0.515.514.7
2016-Jun-21 04:27N 52°08' E 003°44'0 0.0
2016-Jun-21 03:33N 52°08' E 003°44'0 0.0
2016-Jun-21 02:33N 52°08' E 003°44'0 0.0
2016-Jun-21 01:33N 52°08' E 003°44'0 0.0
2016-Jun-21 00:33N 52°08' E 003°44'0 0.0
2016-Jun-20 23:33N 52°08' E 003°44'0 0.1
2016-Jun-20 22:15N 52°08' E 003°44'0 0.1
2016-Jun-20 21:33N 52°08' E 003°44'0 0.0
2016-Jun-20 20:30N 52°08' E 003°44'0 0.1
2016-Jun-20 19:24N 52°08' E 003°44'0 0.1
2016-Jun-20 18:33N 52°08' E 003°44'2 4.1
2016-Jun-20 18:00N 52°06' E 003°42'2 5.0 230 / 271012.0 5.4 3.016.514.9
2016-Jun-20 17:33N 52°08' E 003°44'0 0.0
2016-Jun-20 16:33N 52°08' E 003°44'0 0.0
2016-Jun-20 15:33N 52°08' E 003°44'0 0.0
2016-Jun-20 14:32N 52°08' E 003°44'0 0.0
2016-Jun-20 13:32N 52°08' E 003°44'0 0.0
2016-Jun-20 12:29N 52°08' E 003°44'0 0.0
2016-Jun-20 11:29N 52°08' E 003°44'0 0.0
2016-Jun-20 10:32N 52°08' E 003°44'0 0.1
2016-Jun-20 09:32N 52°08' E 003°44'0 0.0
2016-Jun-20 08:32N 52°08' E 003°44'0 0.1
2016-Jun-20 07:32N 52°08' E 003°44'0 0.0
2016-Jun-20 06:32N 52°08' E 003°44'0 0.0
2016-Jun-20 05:32N 52°08' E 003°44'0 0.0
2016-Jun-20 04:26N 52°08' E 003°44'0 0.0
2016-Jun-20 03:29N 52°08' E 003°44'0 0.0
2016-Jun-20 02:32N 52°08' E 003°44'0 0.0
2016-Jun-20 01:29N 52°08' E 003°44'0 0.0
2016-Jun-20 00:32N 52°08' E 003°44'0 0.0
2016-Jun-19 23:32N 52°08' E 003°44'0 0.0
2016-Jun-19 22:32N 52°08' E 003°44'0 0.1
2016-Jun-19 21:32N 52°08' E 003°44'0 0.0
2016-Jun-19 20:32N 52°08' E 003°44'0 0.1
2016-Jun-19 19:20N 52°08' E 003°44'0 0.1
2016-Jun-19 18:32N 52°08' E 003°44'0 0.0
2016-Jun-19 17:32N 52°08' E 003°44'0 0.0
2016-Jun-19 16:32N 52°08' E 003°44'0 0.0
2016-Jun-19 15:32N 52°08' E 003°44'0 0.0
2016-Jun-19 14:32N 52°08' E 003°44'0 0.0
2016-Jun-19 13:29N 52°08' E 003°44'0 0.0
2016-Jun-19 12:32N 52°08' E 003°44'0 0.1
2016-Jun-19 11:32N 52°08' E 003°44'0 0.1
2016-Jun-19 09:20N 52°07' E 003°44'0 0.0
2016-Jun-19 08:26N 52°07' E 003°44'0 0.0
2016-Jun-19 07:23N 52°07' E 003°44'2 1.5
2016-Jun-19 06:00N 52°06' E 003°42'2 4.5 310 / 101024.5 5.4 0.514.0 8.5
2016-Jun-19 05:32N 52°07' E 003°44'  
Track history (hours):
 
Tides and Currents Weather Stations Pressure Air Temp Water Temp Dewpoint Dewpoint Depression Visibility Wind Speed Wind Dir Waves Ship Positions

Flinterduin

Last reported at 2016-Jun-29 04:31 UTC. Time now 2016-Jun-29 05:45 UTC.
Position N 52°12' E 004°12'.

Length 112 m; beam 15 m.

Type: Cargo ship. MMSI: 246484000.

Date/timePositionNaut miles runAvg speedWind from/ knotsBaromVisibWave heightAir tempDewpointWater temp
2016-Jun-29 04:31N 52°12' E 004°12'0 0.0
2016-Jun-29 03:31N 52°12' E 004°12'0 0.0
2016-Jun-29 02:31N 52°12' E 004°12'0 0.0
2016-Jun-29 01:31N 52°12' E 004°12'0 0.0
2016-Jun-29 00:28N 52°12' E 004°12'0 0.0
2016-Jun-28 23:31N 52°12' E 004°12'0 0.0
2016-Jun-28 22:34N 52°12' E 004°12'0 0.0
2016-Jun-28 21:33N 52°12' E 004°12'0 0.0
2016-Jun-28 20:33N 52°12' E 004°12'0 0.1
2016-Jun-28 19:33N 52°12' E 004°12'0 0.1
2016-Jun-28 18:33N 52°12' E 004°12'3 3.2
2016-Jun-28 17:33N 52°10' E 004°07'10 9.6
2016-Jun-28 16:34N 52°06' E 003°53'5 5.2
2016-Jun-28 15:32N 52°08' E 003°44'0 0.0
2016-Jun-28 14:29N 52°08' E 003°44'0 0.0
2016-Jun-28 13:29N 52°08' E 003°44'0 0.1
2016-Jun-28 12:32N 52°08' E 003°44'0 0.1
2016-Jun-28 11:29N 52°08' E 003°44'0 0.0
2016-Jun-28 10:26N 52°08' E 003°44'0 0.0
2016-Jun-28 09:32N 52°08' E 003°44'0 0.0
2016-Jun-28 08:32N 52°08' E 003°44'0 0.0
2016-Jun-28 07:29N 52°08' E 003°44'0 0.0
2016-Jun-28 06:29N 52°08' E 003°44'2 4.6
2016-Jun-28 06:00N 52°06' E 003°42'2 1.4 160 / 31018.0 5.4 17.012.8
2016-Jun-28 04:29N 52°08' E 003°44'0 0.0
2016-Jun-28 03:32N 52°08' E 003°44'0 0.0
2016-Jun-28 02:32N 52°08' E 003°44'0 0.0
2016-Jun-28 01:32N 52°08' E 003°44'0 0.0
2016-Jun-28 00:32N 52°08' E 003°44'0 0.1
2016-Jun-27 23:29N 52°08' E 003°44'0 0.1
2016-Jun-27 22:28N 52°08' E 003°44'0 0.0
2016-Jun-27 21:31N 52°08' E 003°44'0 0.0
2016-Jun-27 20:28N 52°08' E 003°44'0 0.0
2016-Jun-27 19:31N 52°08' E 003°44'2 1.5
2016-Jun-27 18:00N 52°06' E 003°42'2 4.3 999 / 11019.0 5.4 18.011.2
2016-Jun-27 17:28N 52°08' E 003°44'0 0.1
2016-Jun-27 16:28N 52°08' E 003°44'0 0.0
2016-Jun-27 14:19N 52°08' E 003°44'0 0.0
2016-Jun-27 13:31N 52°08' E 003°44'0 0.0
2016-Jun-27 12:19N 52°08' E 003°44'0 0.1
2016-Jun-27 11:28N 52°08' E 003°44'0 0.1
2016-Jun-27 10:31N 52°08' E 003°44'0 0.1
2016-Jun-27 09:19N 52°08' E 003°44'0 0.0
2016-Jun-27 08:31N 52°08' E 003°44'0 0.0
2016-Jun-27 07:22N 52°08' E 003°44'0 0.0
2016-Jun-27 06:31N 52°08' E 003°44'0 0.0
2016-Jun-27 05:25N 52°08' E 003°44'0 0.0
2016-Jun-27 04:31N 52°08' E 003°44'0 0.0
2016-Jun-27 03:31N 52°08' E 003°44'0 0.1
2016-Jun-27 02:19N 52°08' E 003°44'0 0.1
2016-Jun-27 01:16N 52°08' E 003°44'0 0.1
2016-Jun-26 23:28N 52°08' E 003°44'0 0.0
2016-Jun-26 22:31N 52°08' E 003°44'0 0.0
2016-Jun-26 21:31N 52°08' E 003°44'0 0.0
2016-Jun-26 20:28N 52°08' E 003°44'0 0.0
2016-Jun-26 19:31N 52°08' E 003°44'0 0.0
2016-Jun-26 18:31N 52°08' E 003°44'2 4.3
2016-Jun-26 18:00N 52°06' E 003°42'2 4.7 230 / 61016.5 5.4 0.516.513.2
2016-Jun-26 17:31N 52°08' E 003°44'0 0.0
2016-Jun-26 16:28N 52°08' E 003°44'0 0.1
2016-Jun-26 15:31N 52°08' E 003°44'0 0.1
2016-Jun-26 14:13N 52°08' E 003°44'0 0.0
2016-Jun-26 12:25N 52°08' E 003°44'0 0.0
2016-Jun-26 11:24N 52°08' E 003°44'0 0.1
2016-Jun-26 10:27N 52°08' E 003°44'0 0.0
2016-Jun-26 09:27N 52°08' E 003°44'0 0.0
2016-Jun-26 08:24N 52°08' E 003°44'0 0.0
2016-Jun-26 07:27N 52°08' E 003°44'0 0.0
2016-Jun-26 06:33N 52°08' E 003°44'2 4.0
2016-Jun-26 06:00N 52°06' E 003°42'2 5.2 270 / 51015.5 5.4 0.516.512.3
2016-Jun-26 05:33N 52°08' E 003°44'0 0.0
2016-Jun-26 04:27N 52°08' E 003°44'0 0.0
2016-Jun-26 03:33N 52°08' E 003°44'0 0.1
2016-Jun-26 02:27N 52°08' E 003°44'0 0.1
2016-Jun-26 01:33N 52°08' E 003°44'0 0.0
2016-Jun-26 00:33N 52°08' E 003°44'0 0.0
2016-Jun-25 23:30N 52°08' E 003°44'0 0.1
2016-Jun-25 22:18N 52°08' E 003°44'0 0.1
2016-Jun-25 21:27N 52°08' E 003°44'0 0.0
2016-Jun-25 20:33N 52°08' E 003°44'0 0.0
2016-Jun-25 19:33N 52°08' E 003°44'0 0.0
2016-Jun-25 18:27N 52°08' E 003°44'2 4.9
2016-Jun-25 18:00N 52°06' E 003°42'2 5.1 280 / 71015.5 5.4 0.516.513.2
2016-Jun-25 17:33N 52°08' E 003°44'0 0.0
2016-Jun-25 16:33N 52°08' E 003°44'0 0.0
2016-Jun-25 15:30N 52°08' E 003°44'0 0.1
2016-Jun-25 14:15N 52°08' E 003°44'0 0.0
2016-Jun-25 13:30N 52°08' E 003°44'0 0.0
2016-Jun-25 12:09N 52°08' E 003°44'0 0.0
2016-Jun-25 11:21N 52°08' E 003°44'0 0.1
2016-Jun-25 10:30N 52°08' E 003°44'0 0.1
2016-Jun-25 09:33N 52°08' E 003°44'0 0.1
2016-Jun-25 08:33N 52°08' E 003°44'0 0.0
2016-Jun-25 07:30N 52°08' E 003°44'0 0.0
2016-Jun-25 06:33N 52°08' E 003°44'2 4.1
2016-Jun-25 06:00N 52°06' E 003°42'2 4.5 240 / 61016.5 5.4 0.516.514.1
2016-Jun-25 05:30N 52°08' E 003°44'0 0.0
2016-Jun-25 04:33N 52°08' E 003°44'0 0.0
2016-Jun-25 03:33N 52°08' E 003°44'0 0.0
2016-Jun-25 02:33N 52°08' E 003°44'0 0.1
2016-Jun-25 01:30N 52°08' E 003°44'0 0.0
2016-Jun-25 00:33N 52°08' E 003°44'0 0.0
2016-Jun-24 23:23N 52°08' E 003°44'0 0.1
2016-Jun-24 22:14N 52°08' E 003°44'0 0.1
2016-Jun-24 21:32N 52°08' E 003°44'0 0.1
2016-Jun-24 20:32N 52°08' E 003°44'0 0.0
2016-Jun-24 19:26N 52°08' E 003°44'0 0.0
2016-Jun-24 18:32N 52°08' E 003°44'2 4.1
2016-Jun-24 18:00N 52°06' E 003°42'2 5.0 210 / 81018.5 5.4 17.513.4
2016-Jun-24 17:32N 52°08' E 003°44'0 0.0
2016-Jun-24 16:32N 52°08' E 003°44'0 0.0
2016-Jun-24 15:32N 52°08' E 003°44'0 0.0
2016-Jun-24 14:32N 52°08' E 003°44'0 0.1
2016-Jun-24 13:29N 52°08' E 003°44'0 0.0
2016-Jun-24 12:23N 52°08' E 003°44'0 0.0
2016-Jun-24 11:32N 52°08' E 003°44'0 0.0
2016-Jun-24 10:20N 52°08' E 003°44'0 0.1
2016-Jun-24 09:32N 52°08' E 003°44'0 0.1
2016-Jun-24 08:23N 52°08' E 003°44'0 0.0
2016-Jun-24 07:32N 52°08' E 003°44'0 0.0
2016-Jun-24 04:32N 52°08' E 003°44'0 0.0
2016-Jun-24 03:32N 52°08' E 003°44'0 0.0
2016-Jun-24 02:08N 52°08' E 003°44'0 0.1
2016-Jun-24 01:29N 52°08' E 003°44'0 0.1
2016-Jun-24 00:32N 52°08' E 003°44'0 0.0
2016-Jun-23 23:32N 52°08' E 003°44'0 0.0
2016-Jun-23 22:26N 52°08' E 003°44'0 0.0
2016-Jun-23 21:32N 52°08' E 003°44'0 0.0
2016-Jun-23 20:29N 52°08' E 003°44'0 0.1
2016-Jun-23 19:29N 52°08' E 003°44'0 0.0
2016-Jun-23 18:32N 52°08' E 003°44'2 4.2
2016-Jun-23 18:00N 52°06' E 003°42'2 4.8 010 / 31015.5 2.2 0.518.017.2
2016-Jun-23 17:32N 52°08' E 003°44'0 0.0
2016-Jun-23 16:29N 52°08' E 003°44'0 0.0
2016-Jun-23 15:32N 52°08' E 003°44'0 0.0
2016-Jun-23 14:32N 52°08' E 003°44'0 0.1
2016-Jun-23 13:31N 52°08' E 003°44'0 0.0
2016-Jun-23 12:28N 52°08' E 003°44'0 0.0
2016-Jun-23 11:31N 52°08' E 003°44'0 0.0
2016-Jun-23 10:28N 52°08' E 003°44'0 0.0
2016-Jun-23 09:31N 52°08' E 003°44'0 0.0
2016-Jun-23 08:31N 52°08' E 003°44'0 0.0
2016-Jun-23 07:28N 52°08' E 003°44'2 1.4
2016-Jun-23 06:00N 52°06' E 003°42'2 4.8 110 / 51018.5 5.4 20.016.9
2016-Jun-23 05:31N 52°08' E 003°44'0 0.0
2016-Jun-23 04:31N 52°08' E 003°44'0 0.0
2016-Jun-23 03:31N 52°08' E 003°44'0 0.0
2016-Jun-23 02:25N 52°08' E 003°44'0 0.1
2016-Jun-23 01:25N 52°08' E 003°44'0 0.1
2016-Jun-23 00:31N 52°08' E 003°44'0 0.0
2016-Jun-22 23:28N 52°08' E 003°44'0 0.0
2016-Jun-22 22:28N 52°08' E 003°44'0 0.0
2016-Jun-22 21:22N 52°08' E 003°44'0 0.0
2016-Jun-22 20:31N 52°08' E 003°44'0 0.0
2016-Jun-22 19:31N 52°08' E 003°44'0 0.1
2016-Jun-22 18:25N 52°08' E 003°44'2 5.3
2016-Jun-22 18:00N 52°06' E 003°42'2 4.7 1020.5 5.4 20.017.7
2016-Jun-22 17:31N 52°08' E 003°44'0 0.0
2016-Jun-22 16:19N 52°08' E 003°44'0 0.0
2016-Jun-22 15:31N 52°08' E 003°44'0 0.0
2016-Jun-22 14:25N 52°08' E 003°44'0 0.0
2016-Jun-22 13:22N 52°08' E 003°44'0 0.1
2016-Jun-22 12:25N 52°08' E 003°44'0 0.0
2016-Jun-22 11:28N 52°08' E 003°44'0 0.0
2016-Jun-22 10:25N 52°08' E 003°44'0 0.0
2016-Jun-22 09:31N 52°08' E 003°44'0 0.0
2016-Jun-22 08:31N 52°08' E 003°44'0 0.2
2016-Jun-22 07:31N 52°08' E 003°44'0 0.0
2016-Jun-22 06:31N 52°08' E 003°44'2 4.4
2016-Jun-22 06:00N 52°06' E 003°42'2 4.2 220 / 81020.5 5.4 17.013.7
2016-Jun-22 05:28N 52°08' E 003°44'0 0.0
2016-Jun-22 04:31N 52°08' E 003°44'0 0.0
2016-Jun-22 03:34N 52°08' E 003°44'0 0.0
2016-Jun-22 02:34N 52°08' E 003°44'0 0.0
2016-Jun-22 01:27N 52°08' E 003°44'0 0.0
2016-Jun-22 00:30N 52°08' E 003°44'0 0.1
2016-Jun-21 23:33N 52°08' E 003°44'0 0.1
2016-Jun-21 22:33N 52°08' E 003°44'0 0.0
2016-Jun-21 21:18N 52°08' E 003°44'0 0.1
2016-Jun-21 20:27N 52°08' E 003°44'0 0.1
2016-Jun-21 19:33N 52°08' E 003°44'0 0.0
2016-Jun-21 18:33N 52°08' E 003°44'2 4.0
2016-Jun-21 18:00N 52°06' E 003°42'2 5.2 230 / 61018.5 5.4 17.014.6
2016-Jun-21 17:33N 52°08' E 003°44'0 0.0
2016-Jun-21 16:33N 52°08' E 003°44'0 0.0
2016-Jun-21 15:30N 52°08' E 003°44'0 0.0
2016-Jun-21 14:30N 52°08' E 003°44'0 0.0
2016-Jun-21 13:33N 52°08' E 003°44'0 0.0
2016-Jun-21 12:33N 52°08' E 003°44'0 0.1
2016-Jun-21 11:33N 52°08' E 003°44'0 0.0
2016-Jun-21 10:33N 52°08' E 003°44'0 0.0
2016-Jun-21 09:33N 52°08' E 003°44'0 0.0
2016-Jun-21 08:33N 52°08' E 003°44'0 0.1
2016-Jun-21 07:33N 52°08' E 003°44'2 1.4
2016-Jun-21 06:00N 52°06' E 003°42'2 1.5 210 / 91016.5 0.1 0.515.514.7
2016-Jun-21 04:27N 52°08' E 003°44'0 0.0
2016-Jun-21 03:33N 52°08' E 003°44'0 0.0
2016-Jun-21 02:33N 52°08' E 003°44'0 0.0
2016-Jun-21 01:33N 52°08' E 003°44'0 0.0
2016-Jun-21 00:33N 52°08' E 003°44'0 0.0
2016-Jun-20 23:33N 52°08' E 003°44'0 0.1
2016-Jun-20 22:15N 52°08' E 003°44'0 0.1
2016-Jun-20 21:33N 52°08' E 003°44'0 0.0
2016-Jun-20 20:30N 52°08' E 003°44'0 0.1
2016-Jun-20 19:24N 52°08' E 003°44'0 0.1
2016-Jun-20 18:33N 52°08' E 003°44'2 4.1
2016-Jun-20 18:00N 52°06' E 003°42'2 5.0 230 / 271012.0 5.4 3.016.514.9
2016-Jun-20 17:33N 52°08' E 003°44'0 0.0
2016-Jun-20 16:33N 52°08' E 003°44'0 0.0
2016-Jun-20 15:33N 52°08' E 003°44'0 0.0
2016-Jun-20 14:32N 52°08' E 003°44'0 0.0
2016-Jun-20 13:32N 52°08' E 003°44'0 0.0
2016-Jun-20 12:29N 52°08' E 003°44'0 0.0
2016-Jun-20 11:29N 52°08' E 003°44'0 0.0
2016-Jun-20 10:32N 52°08' E 003°44'0 0.1
2016-Jun-20 09:32N 52°08' E 003°44'0 0.0
2016-Jun-20 08:32N 52°08' E 003°44'0 0.1
2016-Jun-20 07:32N 52°08' E 003°44'0 0.0
2016-Jun-20 06:32N 52°08' E 003°44'0 0.0
2016-Jun-20 05:32N 52°08' E 003°44'0 0.0
2016-Jun-20 04:26N 52°08' E 003°44'0 0.0
2016-Jun-20 03:29N 52°08' E 003°44'0 0.0
2016-Jun-20 02:32N 52°08' E 003°44'0 0.0
2016-Jun-20 01:29N 52°08' E 003°44'0 0.0
2016-Jun-20 00:32N 52°08' E 003°44'0 0.0
2016-Jun-19 23:32N 52°08' E 003°44'0 0.0
2016-Jun-19 22:32N 52°08' E 003°44'0 0.1
2016-Jun-19 21:32N 52°08' E 003°44'0 0.0
2016-Jun-19 20:32N 52°08' E 003°44'0 0.1
2016-Jun-19 19:20N 52°08' E 003°44'0 0.1
2016-Jun-19 18:32N 52°08' E 003°44'0 0.0
2016-Jun-19 17:32N 52°08' E 003°44'0 0.0
2016-Jun-19 16:32N 52°08' E 003°44'0 0.0
2016-Jun-19 15:32N 52°08' E 003°44'0 0.0
2016-Jun-19 14:32N 52°08' E 003°44'0 0.0
2016-Jun-19 13:29N 52°08' E 003°44'0 0.0
2016-Jun-19 12:32N 52°08' E 003°44'0 0.1
2016-Jun-19 11:32N 52°08' E 003°44'0 0.1
2016-Jun-19 09:20N 52°07' E 003°44'0 0.0
2016-Jun-19 08:26N 52°07' E 003°44'0 0.0
2016-Jun-19 07:23N 52°07' E 003°44'2 1.5
2016-Jun-19 06:00N 52°06' E 003°42'2 4.5 310 / 101024.5 5.4 0.514.0 8.5
2016-Jun-19 05:32N 52°07' E 003°44'  

Dump ship's entire track history